Time;durP1;ratioP1;P1;durP2;ratioP2;P2;SDS_P1;SDS_P2;PMS_P1;PMS_P2;Temp;Humidity;BMP_temperature;BMP_pressure;BME280_temperature;BME280_humidity;BME280_pressure;Samples;Min_cycle;Max_cycle;Signal;HPM_P1;HPM_P2
2021/12/25 00:00:16;;;;;;;;;;;23.10;36.40;;;;;;5122036;28;19927;-54
2021/12/25 00:02:43;;;;;;;;;;;23.20;36.20;;;;;;5127116;28;19980;-60
2021/12/25 00:05:09;;;;;;;;;;;23.20;36.20;;;;;;5121627;28;19923;-54
2021/12/25 00:07:34;;;;;;;;;;;23.00;36.60;;;;;;5126835;27;20371;-51
2021/12/25 00:10:00;;;;;;;;;;;23.10;36.30;;;;;;5120316;28;19931;-58
2021/12/25 00:12:26;;;;;;;;;;;23.20;36.30;;;;;;5121789;28;20336;-52
2021/12/25 00:14:52;;;;;;;;;;;23.20;36.10;;;;;;5127147;28;20033;-62
2021/12/25 00:17:18;;;;;;;;;;;23.10;36.30;;;;;;5121612;28;19974;-57
2021/12/25 00:19:44;;;;;;;;;;;23.10;36.40;;;;;;5121619;28;19939;-57
2021/12/25 00:22:10;;;;;;;;;;;23.20;36.30;;;;;;5126697;28;19928;-62
2021/12/25 00:24:41;;;;;;;;;;;23.00;36.50;;;;;;5120919;28;20006;-51
2021/12/25 00:27:22;;;;;;;;;;;23.00;36.50;;;;;;5125859;28;19992;-59
2021/12/25 00:30:07;;;;;;;;;;;23.10;36.30;;;;;;5126233;28;19924;-53
2021/12/25 00:32:55;;;;;;;;;;;23.00;36.60;;;;;;5121653;28;19938;-51
2021/12/25 00:35:21;;;;;;;;;;;23.10;36.30;;;;;;5121401;28;19927;-51
2021/12/25 00:37:47;;;;;;;;;;;23.00;36.60;;;;;;5126676;28;19923;-53
2021/12/25 00:40:13;;;;;;;;;;;23.10;36.40;;;;;;5121118;28;20443;-61
2021/12/25 00:42:39;;;;;;;;;;;23.10;36.40;;;;;;5124592;28;19923;-57
2021/12/25 00:45:04;;;;;;;;;;;22.90;36.70;;;;;;5122677;28;19974;-61
2021/12/25 00:47:30;;;;;;;;;;;22.90;36.60;;;;;;5120712;28;19930;-52
2021/12/25 00:49:56;;;;;;;;;;;23.10;36.40;;;;;;5126665;28;20057;-57
2021/12/25 00:52:22;;;;;;;;;;;23.10;36.20;;;;;;5120943;28;19923;-50
2021/12/25 00:54:47;;;;;;;;;;;22.90;36.70;;;;;;5121126;28;19923;-55
2021/12/25 00:57:13;;;;;;;;;;;23.00;36.60;;;;;;5126225;28;20367;-52
2021/12/25 00:59:39;;;;;;;;;;;23.20;36.30;;;;;;5120807;28;19930;-59
2021/12/25 01:02:05;;;;;;;;;;;23.10;36.30;;;;;;5122184;28;19931;-56
2021/12/25 01:04:31;;;;;;;;;;;23.00;36.50;;;;;;5124291;28;19927;-54
2021/12/25 01:06:57;;;;;;;;;;;23.10;36.30;;;;;;5120684;28;20022;-59
2021/12/25 01:09:22;;;;;;;;;;;23.10;36.30;;;;;;5126414;28;19923;-55
2021/12/25 01:11:50;;;;;;;;;;;22.80;36.90;;;;;;5120667;28;19984;-54
2021/12/25 01:17:41;;;;;;;;;;;23.10;36.30;;;;;;5062213;28;19939;-58
2021/12/25 01:20:33;;;;;;;;;;;23.00;36.50;;;;;;5061939;28;19928;-55
2021/12/25 01:26:07;;;;;;;;;;;23.10;36.30;;;;;;5120669;28;19945;-55
2021/12/25 01:31:39;;;;;;;;;;;23.20;36.20;;;;;;5120323;28;20289;-60
2021/12/25 01:37:09;;;;;;;;;;;23.00;36.50;;;;;;5086620;28;19937;-58
2021/12/25 01:47:41;;;;;;;;;;;23.10;36.50;;;;;;5119931;28;19929;-59
2021/12/25 01:47:47;;;;;;;;;;;23.00;36.70;;;;;;5125751;28;19933;-54
2021/12/25 01:50:13;;;;;;;;;;;23.00;36.50;;;;;;5120071;28;20290;-53
2021/12/25 01:52:39;;;;;;;;;;;23.20;36.50;;;;;;5119932;28;20017;-60
2021/12/25 01:55:09;;;;;;;;;;;23.10;36.60;;;;;;5125606;28;19924;-57
2021/12/25 01:57:34;;;;;;;;;;;23.00;37.00;;;;;;5119812;28;20397;-54
2021/12/25 02:00:00;;;;;;;;;;;23.30;36.60;;;;;;5124630;28;19923;-58
2021/12/25 02:02:26;;;;;;;;;;;23.00;36.90;;;;;;5120378;28;19938;-52
2021/12/25 02:04:52;;;;;;;;;;;23.00;37.00;;;;;;5120124;28;20325;-51
2021/12/25 02:07:18;;;;;;;;;;;23.20;36.80;;;;;;5125561;28;20386;-57
2021/12/25 02:09:44;;;;;;;;;;;23.10;36.90;;;;;;5119823;28;19991;-55
2021/12/25 02:12:11;;;;;;;;;;;23.20;36.90;;;;;;5119937;28;20488;-53
2021/12/25 02:14:37;;;;;;;;;;;23.20;36.80;;;;;;5125024;28;19924;-62
2021/12/25 02:17:16;;;;;;;;;;;23.20;36.80;;;;;;5119674;28;19950;-57
2021/12/25 02:19:54;;;;;;;;;;;23.10;37.10;;;;;;5100999;28;19933;-56
2021/12/25 02:22:24;;;;;;;;;;;23.10;37.10;;;;;;5125474;28;19927;-54
2021/12/25 02:24:49;;;;;;;;;;;23.10;37.00;;;;;;5119764;28;20399;-57
2021/12/25 02:27:15;;;;;;;;;;;23.10;37.00;;;;;;5121142;28;19949;-57
2021/12/25 02:29:41;;;;;;;;;;;23.20;36.90;;;;;;5123759;28;19931;-57
2021/12/25 02:32:07;;;;;;;;;;;23.20;36.90;;;;;;5121117;27;20359;-63
2021/12/25 02:34:33;;;;;;;;;;;23.00;37.20;;;;;;5128397;28;19935;-57
2021/12/25 02:36:58;;;;;;;;;;;23.00;37.30;;;;;;5122620;28;19931;-59
2021/12/25 02:39:24;;;;;;;;;;;23.10;37.00;;;;;;5123151;28;19924;-57
2021/12/25 02:41:50;;;;;;;;;;;23.00;37.10;;;;;;5128838;28;19931;-61
2021/12/25 02:44:16;;;;;;;;;;;23.10;37.10;;;;;;5123039;28;20023;-56
2021/12/25 02:46:42;;;;;;;;;;;23.00;37.30;;;;;;5103700;28;19924;-60
2021/12/25 02:49:09;;;;;;;;;;;23.10;37.20;;;;;;5128430;28;19968;-54
2021/12/25 02:51:34;;;;;;;;;;;23.10;37.10;;;;;;5122760;28;20539;-61
2021/12/25 02:54:00;;;;;;;;;;;23.10;37.20;;;;;;5128208;28;20257;-49
2021/12/25 02:56:26;;;;;;;;;;;22.80;37.70;;;;;;5122522;28;19927;-55
2021/12/25 02:58:52;;;;;;;;;;;22.90;37.40;;;;;;5123215;28;20374;-62
2021/12/25 03:01:18;;;;;;;;;;;22.90;37.50;;;;;;5109914;28;20014;-54
2021/12/25 03:03:44;;;;;;;;;;;23.00;37.50;;;;;;5123062;28;19923;-55
2021/12/25 03:06:10;;;;;;;;;;;23.10;37.30;;;;;;5122841;28;19938;-63
2021/12/25 03:08:36;;;;;;;;;;;23.10;37.30;;;;;;5128252;28;19923;-52
2021/12/25 03:11:03;;;;;;;;;;;22.90;37.60;;;;;;5122276;28;19927;-54
2021/12/25 03:13:42;;;;;;;;;;;23.20;37.00;;;;;;5127741;28;20410;-61
2021/12/25 03:16:08;;;;;;;;;;;23.20;37.00;;;;;;5110334;28;19930;-57
2021/12/25 03:18:38;;;;;;;;;;;23.20;37.10;;;;;;5122788;28;20378;-55
2021/12/25 03:21:04;;;;;;;;;;;23.10;37.10;;;;;;5127942;28;19942;-52
2021/12/25 03:23:30;;;;;;;;;;;23.20;37.10;;;;;;5122740;28;19932;-58
2021/12/25 03:25:56;;;;;;;;;;;23.00;37.30;;;;;;5122385;28;19929;-53
2021/12/25 03:28:23;;;;;;;;;;;23.20;37.20;;;;;;5127827;28;20393;-61
2021/12/25 03:30:49;;;;;;;;;;;22.90;37.40;;;;;;5122238;28;20365;-58
2021/12/25 03:33:15;;;;;;;;;;;22.90;37.40;;;;;;5121835;28;19927;-54
2021/12/25 03:35:41;;;;;;;;;;;23.10;37.10;;;;;;5127790;28;19972;-57
2021/12/25 03:38:08;;;;;;;;;;;23.20;37.00;;;;;;5122352;28;20369;-62
2021/12/25 03:40:33;;;;;;;;;;;23.20;37.10;;;;;;5127809;28;20030;-55
2021/12/25 03:42:59;;;;;;;;;;;22.90;37.60;;;;;;5121078;27;19974;-55
2021/12/25 03:45:28;;;;;;;;;;;23.10;37.30;;;;;;5121938;28;19931;-59
2021/12/25 03:48:04;;;;;;;;;;;23.10;37.30;;;;;;5127274;28;19927;-54
2021/12/25 03:58:32;;;;;;;;;;;23.00;37.40;;;;;;5122133;28;20297;-58
2021/12/25 04:01:09;;;;;;;;;;;22.90;37.60;;;;;;5121927;28;19993;-53
2021/12/25 04:06:24;;;;;;;;;;;23.20;37.10;;;;;;5094794;28;19924;-55
2021/12/25 04:08:51;;;;;;;;;;;23.00;37.40;;;;;;5121567;28;19976;-62
2021/12/25 04:11:27;;;;;;;;;;;23.10;37.20;;;;;;5126880;28;19992;-60
2021/12/25 04:13:53;;;;;;;;;;;23.10;37.30;;;;;;5122091;28;19980;-62
2021/12/25 04:16:19;;;;;;;;;;;23.00;37.40;;;;;;5121643;28;19927;-55
2021/12/25 04:18:45;;;;;;;;;;;22.90;37.50;;;;;;5127139;28;19927;-61
2021/12/25 04:21:10;;;;;;;;;;;23.00;37.40;;;;;;5121533;28;19923;-53
2021/12/25 04:23:40;;;;;;;;;;;23.00;37.40;;;;;;5121999;28;19923;-57
2021/12/25 04:26:05;;;;;;;;;;;23.00;37.50;;;;;;5126524;28;19934;-54
2021/12/25 04:32:03;;;;;;;;;;;23.00;37.50;;;;;;5126993;28;20276;-60
2021/12/25 05:03:45;;;;;;;;;;;23.00;37.10;;;;;;5120553;28;19934;-60
2021/12/25 05:06:11;;;;;;;;;;;23.00;37.30;;;;;;5120553;28;20596;-58
2021/12/25 05:08:37;;;;;;;;;;;22.90;37.30;;;;;;5126541;28;20302;-62
2021/12/25 05:11:03;;;;;;;;;;;22.90;37.40;;;;;;5120701;28;19934;-53
2021/12/25 05:13:29;;;;;;;;;;;22.90;37.40;;;;;;5126218;28;20393;-53
2021/12/25 05:15:55;;;;;;;;;;;23.10;37.10;;;;;;5120646;28;19931;-60
2021/12/25 05:18:21;;;;;;;;;;;22.70;37.70;;;;;;5120321;28;20366;-58
2021/12/25 05:20:47;;;;;;;;;;;22.80;37.60;;;;;;5125568;28;19992;-54
2021/12/25 05:23:13;;;;;;;;;;;22.80;37.30;;;;;;5120410;28;19970;-54
2021/12/25 05:25:38;;;;;;;;;;;23.00;37.00;;;;;;5120450;28;19923;-63
2021/12/25 05:28:04;;;;;;;;;;;22.90;37.20;;;;;;5126013;28;19934;-54
2021/12/25 05:30:30;;;;;;;;;;;23.00;37.30;;;;;;5102124;28;19930;-54
2021/12/25 05:32:56;;;;;;;;;;;23.10;36.90;;;;;;5125240;28;19944;-59
2021/12/25 05:35:22;;;;;;;;;;;23.00;37.20;;;;;;5121496;28;20029;-59
2021/12/25 05:37:48;;;;;;;;;;;23.10;37.10;;;;;;5120328;28;19924;-59
2021/12/25 05:40:14;;;;;;;;;;;22.90;37.20;;;;;;5125494;28;19923;-54
2021/12/25 05:42:39;;;;;;;;;;;23.10;37.00;;;;;;5120100;28;20006;-58
2021/12/25 05:45:05;;;;;;;;;;;22.90;37.30;;;;;;5120301;28;20286;-52
2021/12/25 05:47:31;;;;;;;;;;;22.90;37.30;;;;;;5125787;28;19923;-55
2021/12/25 05:49:57;;;;;;;;;;;23.00;37.10;;;;;;5120445;28;19946;-61
2021/12/25 05:52:23;;;;;;;;;;;22.90;37.20;;;;;;5122727;28;19979;-57
2021/12/25 05:54:49;;;;;;;;;;;23.00;37.00;;;;;;5104842;28;19938;-60
2021/12/25 05:57:15;;;;;;;;;;;22.80;37.30;;;;;;5119962;28;19937;-52
2021/12/25 05:59:41;;;;;;;;;;;22.80;37.50;;;;;;5125322;28;19968;-52
2021/12/25 06:02:06;;;;;;;;;;;23.00;37.00;;;;;;5119435;28;19924;-61
2021/12/25 06:04:34;;;;;;;;;;;23.10;36.90;;;;;;5101238;28;19931;-55
2021/12/25 06:07:00;;;;;;;;;;;23.10;36.90;;;;;;5126678;27;20398;-60
2021/12/25 06:09:26;;;;;;;;;;;23.10;36.80;;;;;;5123903;28;19945;-59
2021/12/25 06:11:52;;;;;;;;;;;22.90;37.10;;;;;;5123380;28;20411;-58
2021/12/25 06:14:20;;;;;;;;;;;23.10;36.80;;;;;;5128784;28;20034;-62
2021/12/25 06:16:46;;;;;;;;;;;23.10;36.60;;;;;;5105369;28;19927;-52
2021/12/25 06:19:12;;;;;;;;;;;22.90;37.10;;;;;;5128755;28;19968;-54
2021/12/25 06:21:38;;;;;;;;;;;23.10;36.70;;;;;;5123432;28;20265;-59
2021/12/25 06:24:05;;;;;;;;;;;23.20;36.40;;;;;;5123740;28;19972;-58
2021/12/25 06:26:31;;;;;;;;;;;23.00;36.70;;;;;;5128961;28;19928;-53
2021/12/25 06:28:57;;;;;;;;;;;23.20;36.40;;;;;;5123465;28;19998;-62
2021/12/25 06:31:23;;;;;;;;;;;23.00;36.60;;;;;;5104849;28;20203;-53
2021/12/25 06:33:48;;;;;;;;;;;23.00;36.70;;;;;;5128754;28;19966;-57
2021/12/25 06:36:14;;;;;;;;;;;23.20;36.40;;;;;;5122915;28;19935;-63
2021/12/25 06:38:41;;;;;;;;;;;23.10;36.40;;;;;;5128162;28;19924;-59
2021/12/25 06:41:07;;;;;;;;;;;22.80;37.10;;;;;;5123466;28;19927;-57
2021/12/25 06:43:33;;;;;;;;;;;23.00;36.80;;;;;;5123097;28;19930;-54
2021/12/25 06:45:59;;;;;;;;;;;23.10;36.60;;;;;;5128636;28;19940;-60
2021/12/25 06:48:26;;;;;;;;;;;23.10;36.50;;;;;;5123050;28;19953;-55
2021/12/25 06:50:52;;;;;;;;;;;23.10;36.50;;;;;;5122864;28;19928;-57
2021/12/25 06:53:18;;;;;;;;;;;23.20;36.40;;;;;;5128227;28;20378;-59
2021/12/25 06:55:44;;;;;;;;;;;22.90;36.90;;;;;;5122758;28;19930;-56
2021/12/25 06:58:09;;;;;;;;;;;22.90;37.00;;;;;;5125697;28;19931;-58
2021/12/25 07:00:35;;;;;;;;;;;23.10;36.60;;;;;;5125624;28;20340;-58
2021/12/25 07:03:01;;;;;;;;;;;23.10;36.60;;;;;;5122795;28;20376;-53
2021/12/25 07:05:27;;;;;;;;;;;23.10;36.80;;;;;;5128334;28;19924;-52
2021/12/25 07:07:52;;;;;;;;;;;23.10;36.80;;;;;;5122592;28;19923;-55
2021/12/25 07:10:18;;;;;;;;;;;23.10;36.70;;;;;;5122778;28;19928;-61
2021/12/25 07:12:47;;;;;;;;;;;23.20;36.70;;;;;;5109437;28;20006;-53
2021/12/25 07:15:12;;;;;;;;;;;23.10;36.90;;;;;;5122197;28;20309;-57
2021/12/25 07:17:38;;;;;;;;;;;23.10;36.90;;;;;;5122518;27;19928;-57
2021/12/25 07:20:04;;;;;;;;;;;23.20;36.90;;;;;;5128138;28;19925;-53
2021/12/25 07:22:30;;;;;;;;;;;23.00;37.30;;;;;;5122706;28;19924;-59
2021/12/25 07:24:56;;;;;;;;;;;23.10;37.20;;;;;;5127861;28;19946;-56
2021/12/25 07:27:22;;;;;;;;;;;23.20;37.00;;;;;;5122309;28;20011;-60
2021/12/25 07:29:47;;;;;;;;;;;23.10;37.10;;;;;;5122165;28;19923;-58
2021/12/25 07:32:13;;;;;;;;;;;23.00;37.20;;;;;;5109277;28;19927;-59
2021/12/25 07:34:40;;;;;;;;;;;23.20;37.20;;;;;;5121941;28;19934;-56
2021/12/25 07:37:05;;;;;;;;;;;23.20;37.00;;;;;;5122736;28;19947;-62
2021/12/25 07:39:31;;;;;;;;;;;23.30;36.90;;;;;;5127836;28;19928;-62
2021/12/25 07:41:57;;;;;;;;;;;23.10;37.20;;;;;;5122725;28;19923;-61
2021/12/25 07:44:23;;;;;;;;;;;23.00;37.40;;;;;;5127929;28;19935;-59
2021/12/25 07:46:49;;;;;;;;;;;23.10;37.20;;;;;;5118217;28;20459;-59
2021/12/25 07:49:20;;;;;;;;;;;22.90;37.60;;;;;;5121752;28;20244;-53
2021/12/25 07:51:46;;;;;;;;;;;23.10;37.20;;;;;;5126980;28;20294;-58
2021/12/25 07:54:12;;;;;;;;;;;23.00;37.20;;;;;;5121826;28;19924;-54
2021/12/25 07:56:37;;;;;;;;;;;23.00;37.40;;;;;;5122531;28;20463;-56
2021/12/25 07:59:03;;;;;;;;;;;23.10;37.20;;;;;;5127368;28;19923;-57
2021/12/25 08:01:31;;;;;;;;;;;23.10;37.20;;;;;;5102741;28;20019;-59
2021/12/25 08:03:56;;;;;;;;;;;23.20;37.20;;;;;;5125474;28;20026;-55
2021/12/25 08:06:22;;;;;;;;;;;23.20;37.20;;;;;;5124002;28;19923;-60
2021/12/25 08:08:50;;;;;;;;;;;22.90;37.80;;;;;;5121494;28;19963;-53
2021/12/25 08:11:16;;;;;;;;;;;23.10;37.40;;;;;;5126661;28;20758;-64
2021/12/25 08:13:41;;;;;;;;;;;23.20;37.30;;;;;;5121855;28;19924;-57
2021/12/25 08:16:07;;;;;;;;;;;22.80;38.10;;;;;;5121853;28;19927;-55
2021/12/25 08:18:33;;;;;;;;;;;23.00;37.60;;;;;;5108787;28;19931;-60
2021/12/25 08:20:59;;;;;;;;;;;23.00;37.60;;;;;;5121480;28;20352;-56
2021/12/25 08:23:25;;;;;;;;;;;23.10;37.40;;;;;;5122293;28;19930;-59
2021/12/25 08:25:50;;;;;;;;;;;23.10;37.50;;;;;;5107806;28;19979;-58
2021/12/25 08:28:16;;;;;;;;;;;23.20;37.40;;;;;;5121246;28;19970;-57
2021/12/25 08:30:42;;;;;;;;;;;22.90;38.00;;;;;;5125565;27;19923;-58
2021/12/25 08:33:08;;;;;;;;;;;23.00;37.90;;;;;;5121990;28;19927;-53
2021/12/25 08:35:34;;;;;;;;;;;23.10;37.60;;;;;;5121439;28;19931;-58
2021/12/25 08:37:59;;;;;;;;;;;23.00;37.90;;;;;;5126819;28;20287;-55
2021/12/25 08:40:26;;;;;;;;;;;23.10;37.70;;;;;;5121198;28;19928;-60
2021/12/25 08:42:57;;;;;;;;;;;23.10;37.70;;;;;;5121222;28;19927;-55
2021/12/25 08:48:06;;;;;;;;;;;23.10;37.80;;;;;;5104684;28;20022;-54
2021/12/25 08:50:32;;;;;;;;;;;23.10;37.70;;;;;;5121439;28;19927;-63
2021/12/25 08:52:58;;;;;;;;;;;23.20;37.70;;;;;;5126706;28;20014;-56
2021/12/25 08:55:24;;;;;;;;;;;23.00;37.90;;;;;;5121155;28;19924;-62
2021/12/25 08:57:50;;;;;;;;;;;23.10;37.70;;;;;;5126405;28;19924;-60
2021/12/25 09:00:16;;;;;;;;;;;22.90;38.20;;;;;;5120784;28;19930;-53
2021/12/25 09:02:42;;;;;;;;;;;23.00;37.90;;;;;;5120938;28;19991;-57
2021/12/25 09:05:08;;;;;;;;;;;23.00;38.00;;;;;;5126219;28;19928;-55
2021/12/25 09:07:34;;;;;;;;;;;23.10;37.90;;;;;;5120602;28;20268;-57
2021/12/25 09:09:59;;;;;;;;;;;23.10;38.00;;;;;;5121127;28;20156;-59
2021/12/25 09:12:28;;;;;;;;;;;23.20;37.90;;;;;;5126162;28;19931;-62
2021/12/25 09:14:53;;;;;;;;;;;23.20;37.90;;;;;;5120999;28;20490;-58
2021/12/25 09:17:19;;;;;;;;;;;22.90;38.50;;;;;;5126135;28;19970;-56
2021/12/25 09:19:45;;;;;;;;;;;23.10;38.00;;;;;;5120750;28;19989;-62
2021/12/25 09:22:11;;;;;;;;;;;23.00;38.00;;;;;;5120380;28;19930;-54
2021/12/25 09:24:37;;;;;;;;;;;23.00;38.20;;;;;;5125651;28;19923;-61
2021/12/25 09:27:03;;;;;;;;;;;23.10;37.90;;;;;;5100549;28;19952;-57
2021/12/25 09:29:28;;;;;;;;;;;23.20;37.80;;;;;;5121011;28;20187;-59
2021/12/25 09:31:54;;;;;;;;;;;23.10;37.90;;;;;;5125796;28;19933;-58
2021/12/25 09:34:19;;;;;;;;;;;23.10;38.00;;;;;;5120329;28;20030;-54
2021/12/25 09:36:48;;;;;;;;;;;23.20;37.90;;;;;;5125753;28;19923;-59
2021/12/25 09:39:14;;;;;;;;;;;23.20;37.90;;;;;;5121253;28;20323;-58
2021/12/25 09:41:39;;;;;;;;;;;22.80;38.70;;;;;;5120066;27;19931;-54
2021/12/25 09:44:05;;;;;;;;;;;22.90;38.40;;;;;;5125381;28;20422;-60
2021/12/25 09:46:31;;;;;;;;;;;23.00;38.20;;;;;;5120736;28;19948;-53
2021/12/25 09:48:57;;;;;;;;;;;23.10;38.20;;;;;;5120476;28;19988;-61
2021/12/25 09:51:23;;;;;;;;;;;23.20;38.10;;;;;;5107404;28;19973;-56
2021/12/25 09:54:02;;;;;;;;;;;23.00;38.50;;;;;;5120319;28;20382;-62
2021/12/25 09:56:28;;;;;;;;;;;23.10;38.20;;;;;;5120335;28;19931;-58
2021/12/25 09:58:54;;;;;;;;;;;23.10;38.30;;;;;;5107180;28;19927;-61
2021/12/25 10:01:35;;;;;;;;;;;23.20;38.20;;;;;;5119784;28;19934;-53
2021/12/25 10:04:01;;;;;;;;;;;23.00;38.40;;;;;;5121801;28;19930;-57
2021/12/25 10:06:27;;;;;;;;;;;23.20;38.10;;;;;;5124259;28;19931;-60
2021/12/25 10:08:53;;;;;;;;;;;22.90;38.60;;;;;;5120033;28;19927;-56
2021/12/25 10:11:19;;;;;;;;;;;22.80;38.70;;;;;;5107309;28;20876;-54
2021/12/25 10:13:46;;;;;;;;;;;23.20;38.10;;;;;;5119766;28;19927;-60
2021/12/25 10:16:19;;;;;;;;;;;23.20;38.00;;;;;;5119811;28;19924;-55
2021/12/25 10:18:44;;;;;;;;;;;23.00;38.20;;;;;;5125092;28;20224;-60
2021/12/25 10:21:17;;;;;;;;;;;23.10;37.90;;;;;;5119385;28;19924;-53
2021/12/25 10:23:43;;;;;;;;;;;23.00;38.00;;;;;;5119902;28;19928;-58
2021/12/25 10:26:09;;;;;;;;;;;23.10;37.80;;;;;;5125291;28;19923;-58
2021/12/25 10:28:35;;;;;;;;;;;23.00;38.00;;;;;;5119875;28;19930;-55
2021/12/25 10:31:02;;;;;;;;;;;23.10;37.80;;;;;;5124154;28;19930;-58
2021/12/25 10:33:28;;;;;;;;;;;23.20;37.70;;;;;;5121915;28;19976;-56
2021/12/25 10:35:55;;;;;;;;;;;23.00;38.10;;;;;;5119461;28;19972;-55
2021/12/25 10:38:22;;;;;;;;;;;23.10;37.90;;;;;;5106643;28;20430;-62
2021/12/25 10:40:47;;;;;;;;;;;23.10;37.90;;;;;;5119304;28;19924;-55
2021/12/25 10:43:20;;;;;;;;;;;23.10;38.00;;;;;;5119808;28;19928;-57
2021/12/25 10:46:01;;;;;;;;;;;23.10;38.00;;;;;;5124947;28;19937;-55
2021/12/25 10:48:28;;;;;;;;;;;23.10;38.10;;;;;;5119629;28;19976;-58
2021/12/25 10:50:53;;;;;;;;;;;23.10;38.10;;;;;;5119452;28;19923;-55
2021/12/25 10:53:29;;;;;;;;;;;23.00;38.50;;;;;;5126314;27;19923;-55
2021/12/25 10:56:05;;;;;;;;;;;23.10;38.10;;;;;;5122932;28;19934;-52
2021/12/25 10:58:31;;;;;;;;;;;23.00;38.20;;;;;;5122335;28;20189;-62
2021/12/25 11:00:57;;;;;;;;;;;23.00;38.10;;;;;;5128607;28;19927;-52
2021/12/25 11:03:26;;;;;;;;;;;23.00;38.10;;;;;;5123068;28;19924;-57
2021/12/25 11:05:52;;;;;;;;;;;23.10;37.70;;;;;;5108739;28;19937;-62
2021/12/25 11:08:19;;;;;;;;;;;23.10;37.60;;;;;;5124758;28;19996;-62
2021/12/25 11:10:46;;;;;;;;;;;23.00;37.60;;;;;;5122689;28;19923;-55
2021/12/25 11:13:18;;;;;;;;;;;23.00;37.60;;;;;;5109664;28;19929;-61
2021/12/25 11:15:44;;;;;;;;;;;23.10;37.40;;;;;;5122330;28;20443;-57
2021/12/25 11:18:12;;;;;;;;;;;23.00;37.50;;;;;;5122540;28;19928;-63
2021/12/25 11:20:41;;;;;;;;;;;23.20;37.40;;;;;;5128152;28;20004;-54
2021/12/25 11:23:08;;;;;;;;;;;23.10;37.60;;;;;;5122543;28;19965;-63
2021/12/25 11:25:34;;;;;;;;;;;23.00;37.70;;;;;;5122496;28;19927;-58
2021/12/25 11:28:00;;;;;;;;;;;22.70;38.30;;;;;;5127665;28;19923;-57
2021/12/25 11:30:27;;;;;;;;;;;23.10;37.50;;;;;;5122261;28;20230;-62
2021/12/25 11:32:53;;;;;;;;;;;23.20;37.40;;;;;;5127752;28;19997;-53
2021/12/25 11:35:19;;;;;;;;;;;23.00;37.60;;;;;;5121908;28;19923;-54
2021/12/25 11:37:45;;;;;;;;;;;23.10;37.40;;;;;;5122549;28;19978;-60
2021/12/25 11:40:11;;;;;;;;;;;23.10;37.30;;;;;;5127640;28;20465;-62
2021/12/25 11:42:46;;;;;;;;;;;23.20;37.40;;;;;;5104165;28;19931;-62
2021/12/25 11:45:13;;;;;;;;;;;23.00;37.70;;;;;;5122368;28;20309;-58
2021/12/25 11:47:40;;;;;;;;;;;23.20;37.40;;;;;;5127425;28;19924;-60
2021/12/25 11:50:22;;;;;;;;;;;23.10;37.40;;;;;;5121825;28;20393;-55
2021/12/25 11:53:05;;;;;;;;;;;23.00;37.50;;;;;;5121744;28;19934;-59
2021/12/25 11:58:37;;;;;;;;;;;23.10;37.40;;;;;;5122220;28;20333;-59
2021/12/25 12:01:34;;;;;;;;;;;23.00;37.50;;;;;;5122107;28;20019;-60
2021/12/25 12:04:02;;;;;;;;;;;23.00;37.50;;;;;;5064394;27;19999;-57
2021/12/25 12:07:00;;;;;;;;;;;23.00;37.60;;;;;;5125917;28;20306;-60
2021/12/25 12:09:32;;;;;;;;;;;23.00;37.50;;;;;;5064674;28;20018;-56
2021/12/25 12:12:04;;;;;;;;;;;23.00;37.50;;;;;;5121277;28;20210;-58
2021/12/25 12:14:30;;;;;;;;;;;22.90;37.60;;;;;;5127298;28;20306;-60
2021/12/25 12:16:57;;;;;;;;;;;23.10;37.30;;;;;;5121693;28;19973;-62
2021/12/25 12:21:58;;;;;;;;;;;22.70;38.10;;;;;;5126070;28;19923;-58
2021/12/25 12:25:11;;;;;;;;;;;23.10;37.30;;;;;;5121698;28;19998;-60
2021/12/25 12:27:29;;;;;;;;;;;22.80;37.60;;;;;;5122939;28;19950;-58
2021/12/25 12:29:57;;;;;;;;;;;22.90;37.40;;;;;;5126365;28;20404;-60
2021/12/25 12:32:34;;;;;;;;;;;23.10;37.10;;;;;;5101435;28;21568;-56
2021/12/25 12:35:00;;;;;;;;;;;23.20;37.10;;;;;;5122780;28;20347;-60
2021/12/25 12:37:27;;;;;;;;;;;23.30;37.00;;;;;;5125651;28;21907;-59
2021/12/25 12:39:52;;;;;;;;;;;23.20;37.00;;;;;;5121416;28;19923;-55
2021/12/25 12:42:18;;;;;;;;;;;23.00;37.40;;;;;;5126428;28;20439;-60
2021/12/25 12:44:47;;;;;;;;;;;23.10;37.20;;;;;;5102896;28;20520;-55
2021/12/25 12:47:17;;;;;;;;;;;23.10;37.30;;;;;;5121051;28;20390;-61
2021/12/25 12:49:45;;;;;;;;;;;23.20;37.00;;;;;;5126224;28;20002;-58
2021/12/25 12:52:18;;;;;;;;;;;23.00;37.50;;;;;;5121206;28;19927;-60
2021/12/25 12:55:04;;;;;;;;;;;23.10;37.20;;;;;;5121164;28;20561;-51
2021/12/25 12:57:30;;;;;;;;;;;22.80;37.90;;;;;;5126366;28;19924;-56
2021/12/25 12:59:57;;;;;;;;;;;23.20;37.30;;;;;;5121005;28;20130;-63
2021/12/25 13:02:24;;;;;;;;;;;23.00;37.40;;;;;;5121199;28;19927;-58
2021/12/25 13:04:51;;;;;;;;;;;22.90;37.50;;;;;;5126330;28;20356;-57
2021/12/25 13:07:17;;;;;;;;;;;23.00;37.30;;;;;;5102211;28;20271;-60
2021/12/25 13:09:49;;;;;;;;;;;23.00;37.20;;;;;;5125421;28;20310;-56
2021/12/25 13:12:37;;;;;;;;;;;22.90;37.40;;;;;;5124495;28;19937;-62
2021/12/25 13:15:10;;;;;;;;;;;23.10;37.10;;;;;;5120711;27;19927;-60
2021/12/25 13:17:37;;;;;;;;;;;23.10;37.10;;;;;;5121863;28;20329;-57
2021/12/25 13:20:03;;;;;;;;;;;23.10;37.30;;;;;;5125889;28;19972;-63
2021/12/25 13:22:29;;;;;;;;;;;23.10;37.20;;;;;;5120479;28;19976;-62
2021/12/25 13:25:04;;;;;;;;;;;23.10;37.20;;;;;;5125635;28;19924;-56
2021/12/25 13:27:30;;;;;;;;;;;23.20;37.10;;;;;;5120187;28;19933;-56
2021/12/25 13:30:03;;;;;;;;;;;22.90;37.40;;;;;;5120751;28;19923;-55
2021/12/25 13:32:30;;;;;;;;;;;22.90;37.50;;;;;;5126146;28;20000;-51
2021/12/25 13:34:55;;;;;;;;;;;23.20;37.30;;;;;;5120747;28;19952;-62
2021/12/25 13:37:21;;;;;;;;;;;23.20;37.40;;;;;;5085045;28;19979;-58
2021/12/25 13:39:47;;;;;;;;;;;23.00;37.80;;;;;;5125928;28;19938;-62
2021/12/25 13:42:13;;;;;;;;;;;23.20;37.60;;;;;;5120224;28;19929;-58
2021/12/25 13:44:40;;;;;;;;;;;22.80;38.50;;;;;;5122074;28;20375;-56
2021/12/25 13:47:05;;;;;;;;;;;23.00;38.00;;;;;;5124215;28;19933;-61
2021/12/25 13:49:38;;;;;;;;;;;23.10;37.90;;;;;;5120351;28;19923;-58
2021/12/25 13:52:11;;;;;;;;;;;22.80;38.60;;;;;;5125613;28;20022;-56
2021/12/25 13:54:38;;;;;;;;;;;23.00;38.00;;;;;;5119969;28;19923;-62
2021/12/25 13:57:04;;;;;;;;;;;23.20;37.70;;;;;;5120159;28;19931;-59
2021/12/25 13:59:30;;;;;;;;;;;22.90;38.20;;;;;;5125307;28;19972;-54
2021/12/25 14:01:57;;;;;;;;;;;23.10;37.80;;;;;;5119666;28;20426;-62
2021/12/25 14:04:23;;;;;;;;;;;23.10;37.80;;;;;;5101137;28;20263;-59
2021/12/25 14:06:49;;;;;;;;;;;23.00;38.00;;;;;;5125815;28;19946;-63
2021/12/25 14:09:14;;;;;;;;;;;23.20;37.50;;;;;;5119979;28;19923;-59
2021/12/25 14:11:47;;;;;;;;;;;23.00;37.90;;;;;;5122098;28;20276;-63
2021/12/25 14:14:12;;;;;;;;;;;23.00;37.80;;;;;;5105974;28;20367;-55
2021/12/25 14:16:38;;;;;;;;;;;23.00;38.00;;;;;;5119952;28;19934;-59
2021/12/25 14:19:07;;;;;;;;;;;23.00;38.00;;;;;;5125311;28;19972;-52
2021/12/25 14:21:33;;;;;;;;;;;22.90;38.20;;;;;;5119597;28;20652;-61
2021/12/25 14:24:03;;;;;;;;;;;23.00;38.00;;;;;;5119891;28;19928;-55
2021/12/25 14:26:29;;;;;;;;;;;23.10;37.80;;;;;;5125485;27;20009;-61
2021/12/25 14:28:55;;;;;;;;;;;23.10;37.90;;;;;;5122525;28;19923;-55
2021/12/25 14:31:21;;;;;;;;;;;23.10;37.90;;;;;;5123433;28;20190;-61
2021/12/25 14:33:57;;;;;;;;;;;23.20;37.80;;;;;;5128610;28;19947;-63
2021/12/25 14:36:25;;;;;;;;;;;23.00;38.20;;;;;;5104781;28;20047;-53
2021/12/25 14:38:51;;;;;;;;;;;23.10;38.10;;;;;;5125300;28;19939;-62
2021/12/25 14:41:23;;;;;;;;;;;22.90;38.40;;;;;;5126455;28;19928;-56
2021/12/25 14:43:49;;;;;;;;;;;22.90;38.50;;;;;;5120811;28;20355;-55
2021/12/25 14:46:17;;;;;;;;;;;23.10;38.00;;;;;;5128588;28;19952;-62
2021/12/25 14:48:43;;;;;;;;;;;23.20;38.00;;;;;;5102675;28;19932;-57
2021/12/25 14:51:14;;;;;;;;;;;23.00;38.20;;;;;;5122976;28;19931;-54
2021/12/25 14:53:46;;;;;;;;;;;23.10;38.00;;;;;;5128640;28;19999;-58
2021/12/25 14:56:19;;;;;;;;;;;22.90;38.40;;;;;;5122936;28;20329;-58
2021/12/25 14:58:46;;;;;;;;;;;22.90;38.50;;;;;;5122451;28;19927;-52
2021/12/25 15:01:19;;;;;;;;;;;23.20;37.90;;;;;;5128473;28;19923;-60
2021/12/25 15:03:46;;;;;;;;;;;23.00;38.00;;;;;;5123021;28;20272;-57
2021/12/25 15:06:21;;;;;;;;;;;22.80;38.50;;;;;;5122932;28;20426;-54
2021/12/25 15:09:19;;;;;;;;;;;23.00;38.00;;;;;;5128268;28;19991;-53
2021/12/25 15:11:46;;;;;;;;;;;23.10;37.80;;;;;;5065945;28;19927;-55
2021/12/25 15:14:15;;;;;;;;;;;23.10;37.90;;;;;;5122528;28;19930;-53
2021/12/25 15:16:41;;;;;;;;;;;23.20;37.70;;;;;;5127811;28;19930;-63
2021/12/25 15:19:07;;;;;;;;;;;23.10;37.80;;;;;;5122716;28;20294;-52
2021/12/25 15:21:43;;;;;;;;;;;23.00;37.90;;;;;;5122940;28;19928;-59
2021/12/25 15:24:10;;;;;;;;;;;23.10;37.70;;;;;;5128085;28;19927;-56
2021/12/25 15:26:40;;;;;;;;;;;22.70;38.30;;;;;;5122510;28;20034;-57
2021/12/25 15:29:06;;;;;;;;;;;23.00;37.90;;;;;;5126220;28;19927;-60